createdAt,value
2019-04-05T00:00:28.031Z,1.13
2019-04-05T00:01:27.985Z,1.24
2019-04-05T00:02:27.990Z,0.86
2019-04-05T00:03:28.038Z,1.18
2019-04-05T00:04:28.007Z,1.27
2019-04-05T00:05:28.028Z,1.39
2019-04-05T00:06:28.018Z,1.98
2019-04-05T00:07:27.992Z,1.88
2019-04-05T00:08:27.979Z,2.15
2019-04-05T00:09:28.070Z,2.61
2019-04-05T00:10:27.999Z,2.26
2019-04-05T00:11:28.057Z,2.09
2019-04-05T00:12:28.032Z,1.19
2019-04-05T00:13:28.007Z,1.36
2019-04-05T00:14:28.004Z,2.54
2019-04-05T00:15:28.082Z,1.69
2019-04-05T00:16:27.988Z,0.82
2019-04-05T00:17:28.044Z,1.95
2019-04-05T00:18:28.042Z,1.79
2019-04-05T00:19:28.017Z,2.44
2019-04-05T00:20:28.026Z,2.58
2019-04-05T00:21:28.027Z,1.96
2019-04-05T00:22:28.012Z,1.34
2019-04-05T00:23:28.035Z,1.05
2019-04-05T00:24:28.050Z,1.92
2019-04-05T00:25:28.005Z,2.58
2019-04-05T00:26:28.028Z,1.57
2019-04-05T00:27:28.036Z,1.68
2019-04-05T00:28:28.008Z,3.14
2019-04-05T00:29:28.027Z,1.54
2019-04-05T00:30:28.043Z,1.62
2019-04-05T00:31:28.017Z,0.83
2019-04-05T00:32:28.014Z,1.53
2019-04-05T00:33:28.042Z,1.53
2019-04-05T00:34:28.018Z,0.56
2019-04-05T00:35:28.039Z,0.61
2019-04-05T00:36:28.079Z,0.83
2019-04-05T00:37:28.002Z,0.82
2019-04-05T00:38:28.061Z,0.80
2019-04-05T00:39:28.044Z,1.50
2019-04-05T00:40:28.022Z,0.84
2019-04-05T00:41:28.039Z,1.10
2019-04-05T00:42:28.065Z,0.83
2019-04-05T00:43:28.025Z,0.44
2019-04-05T00:44:28.029Z,0.85
2019-04-05T00:45:28.731Z,1.11
2019-04-05T00:46:28.009Z,1.01
2019-04-05T00:47:28.057Z,0.93
2019-04-05T00:48:28.118Z,0.72
2019-04-05T00:49:28.027Z,0.73
2019-04-05T00:50:28.043Z,1.07
2019-04-05T00:51:28.056Z,1.33
2019-04-05T00:52:28.042Z,2.50
2019-04-05T00:53:28.059Z,1.46
2019-04-05T00:54:28.082Z,1.41
2019-04-05T00:55:28.029Z,1.06
2019-04-05T00:56:28.027Z,1.32
2019-04-05T00:57:28.059Z,1.93
2019-04-05T00:58:28.031Z,0.93
2019-04-05T00:59:28.055Z,2.20
2019-04-05T01:00:28.090Z,1.75
2019-04-05T01:01:28.035Z,0.78
2019-04-05T01:02:28.033Z,1.10
2019-04-05T01:03:28.062Z,2.76
2019-04-05T01:04:28.043Z,2.64
2019-04-05T01:05:28.112Z,1.87
2019-04-05T01:06:28.074Z,2.71
2019-04-05T01:07:28.030Z,2.16
2019-04-05T01:08:28.047Z,2.76
2019-04-05T01:09:28.063Z,2.05
2019-04-05T01:10:28.041Z,1.53
2019-04-05T01:11:28.046Z,2.11
2019-04-05T01:12:28.081Z,2.30
2019-04-05T01:13:28.044Z,1.47
2019-04-05T01:14:28.079Z,2.90
2019-04-05T01:15:39.986Z,2.65
2019-04-05T01:16:28.032Z,3.06
2019-04-05T01:17:28.086Z,2.59
2019-04-05T01:18:28.144Z,1.66
2019-04-05T01:19:28.035Z,1.13
2019-04-05T01:20:28.062Z,2.41
2019-04-05T01:21:28.075Z,1.82
2019-04-05T01:22:28.038Z,1.32
2019-04-05T01:23:28.068Z,1.51
2019-04-05T01:24:28.084Z,3.03
2019-04-05T01:25:28.059Z,1.65
2019-04-05T01:26:28.079Z,1.63
2019-04-05T01:27:28.120Z,1.16
2019-04-05T01:28:28.034Z,1.09
2019-04-05T01:29:28.107Z,0.99
2019-04-05T01:30:28.096Z,0.89
2019-04-05T01:31:28.067Z,2.16
2019-04-05T01:32:28.104Z,2.51
2019-04-05T01:33:28.098Z,1.40
2019-04-05T01:34:28.059Z,1.98
2019-04-05T01:35:28.086Z,1.16
2019-04-05T01:36:28.107Z,0.94
2019-04-05T01:37:28.076Z,3.42
2019-04-05T01:38:28.058Z,1.73
2019-04-05T01:39:28.072Z,1.50
2019-04-05T01:40:28.061Z,1.02
2019-04-05T01:41:28.108Z,1.07
2019-04-05T01:42:28.095Z,1.34
2019-04-05T01:43:28.065Z,0.47
2019-04-05T01:44:28.103Z,2.63
2019-04-05T01:45:28.094Z,2.87
2019-04-05T01:46:28.072Z,4.40
2019-04-05T01:47:28.124Z,1.76
2019-04-05T01:48:28.114Z,1.72
2019-04-05T01:49:28.073Z,0.36
2019-04-05T01:50:28.094Z,2.11
2019-04-05T01:51:28.102Z,3.24
2019-04-05T01:52:28.066Z,1.01
2019-04-05T01:53:28.106Z,2.16
2019-04-05T01:54:29.281Z,2.96
2019-04-05T01:55:28.060Z,1.09
2019-04-05T01:56:28.123Z,2.61
2019-04-05T01:57:28.110Z,1.89
2019-04-05T01:58:28.067Z,1.08
2019-04-05T01:59:28.139Z,1.37
2019-04-05T02:00:28.128Z,0.93
2019-04-05T02:01:28.087Z,1.47
2019-04-05T02:02:28.104Z,2.55
2019-04-05T02:03:28.097Z,1.55
2019-04-05T02:04:28.101Z,1.36
2019-04-05T02:05:28.115Z,1.76
2019-04-05T02:06:28.117Z,1.23
2019-04-05T02:07:28.078Z,2.50
2019-04-05T02:08:28.095Z,1.76
2019-04-05T02:09:28.100Z,1.88
2019-04-05T02:10:28.096Z,1.73
2019-04-05T02:11:28.118Z,2.75
2019-04-05T02:12:28.165Z,2.65
2019-04-05T02:13:28.094Z,2.34
2019-04-05T02:14:28.104Z,1.72
2019-04-05T02:15:28.124Z,2.01
2019-04-05T02:16:28.095Z,1.60
2019-04-05T02:17:28.135Z,1.08
2019-04-05T02:18:28.136Z,1.49
2019-04-05T02:19:28.103Z,1.94
2019-04-05T02:20:28.098Z,2.82
2019-04-05T02:21:28.125Z,1.77
2019-04-05T02:22:28.102Z,1.72
2019-04-05T02:23:28.138Z,1.49
2019-04-05T02:24:28.187Z,1.75
2019-04-05T02:25:28.100Z,2.55
2019-04-05T02:26:28.106Z,2.28
2019-04-05T02:27:28.123Z,1.59
2019-04-05T02:28:28.104Z,1.51
2019-04-05T02:29:28.114Z,1.42
2019-04-05T02:30:28.232Z,1.79
2019-04-05T02:31:28.108Z,1.88
2019-04-05T02:32:28.114Z,1.06
2019-04-05T02:33:28.151Z,0.89
2019-04-05T02:34:28.115Z,1.26
2019-04-05T02:35:28.128Z,0.81
2019-04-05T02:36:28.206Z,0.61
2019-04-05T02:37:28.109Z,0.69
2019-04-05T02:38:28.108Z,1.09
2019-04-05T02:39:28.137Z,0.49
2019-04-05T02:40:28.101Z,1.10
2019-04-05T02:41:28.142Z,1.25
2019-04-05T02:42:28.160Z,0.86
2019-04-05T02:43:28.126Z,0.75
2019-04-05T02:44:28.129Z,1.21
2019-04-05T02:45:28.180Z,1.22
2019-04-05T02:46:28.121Z,1.71
2019-04-05T02:47:28.165Z,1.06
2019-04-05T02:48:28.156Z,0.93
2019-04-05T02:49:28.132Z,2.33
2019-04-05T02:50:28.131Z,1.28
2019-04-05T02:51:28.183Z,1.21
2019-04-05T02:52:28.127Z,0.39
2019-04-05T02:53:28.129Z,0.78
2019-04-05T02:54:28.178Z,0.81
2019-04-05T02:55:28.126Z,0.96
2019-04-05T02:56:28.167Z,0.96
2019-04-05T02:57:28.168Z,1.37
2019-04-05T02:58:28.126Z,1.07
2019-04-05T02:59:28.110Z,0.96
2019-04-05T03:00:28.169Z,1.05
2019-04-05T03:01:28.136Z,1.04
2019-04-05T03:02:28.138Z,0.86
2019-04-05T03:03:28.166Z,0.94
2019-04-05T03:04:28.138Z,0.98
2019-04-05T03:05:28.168Z,1.01
2019-04-05T03:06:28.179Z,0.87
2019-04-05T03:07:28.151Z,1.04
2019-04-05T03:08:28.167Z,0.58
2019-04-05T03:09:28.188Z,1.08
2019-04-05T03:10:28.139Z,2.38
2019-04-05T03:11:28.186Z,2.34
2019-04-05T03:12:28.174Z,1.17
2019-04-05T03:13:28.143Z,0.89
2019-04-05T03:14:28.171Z,1.08
2019-04-05T03:15:28.166Z,1.14
2019-04-05T03:16:40.330Z,1.28
2019-04-05T03:17:28.166Z,0.74
2019-04-05T03:18:28.174Z,2.03
2019-04-05T03:19:28.159Z,1.26
2019-04-05T03:20:28.172Z,1.81
2019-04-05T03:21:28.191Z,1.22
2019-04-05T03:22:28.145Z,1.05
2019-04-05T03:23:28.158Z,0.95
2019-04-05T03:24:28.201Z,0.88
2019-04-05T03:25:28.149Z,0.68
2019-04-05T03:26:28.144Z,0.35
2019-04-05T03:27:28.151Z,0.42
2019-04-05T03:28:28.155Z,0.66
2019-04-05T03:29:28.219Z,1.39
2019-04-05T03:30:28.201Z,0.77
2019-04-05T03:31:28.168Z,0.22
2019-04-05T03:32:28.165Z,1.49
2019-04-05T03:33:28.165Z,0.76
2019-04-05T03:34:28.154Z,0.62
2019-04-05T03:35:28.180Z,0.98
2019-04-05T03:36:28.188Z,1.33
2019-04-05T03:37:28.156Z,1.31
2019-04-05T03:38:28.205Z,0.96
2019-04-05T03:39:28.176Z,1.21
2019-04-05T03:40:28.152Z,0.77
2019-04-05T03:41:28.187Z,0.71
2019-04-05T03:42:28.190Z,1.50
2019-04-05T03:43:28.179Z,0.79
2019-04-05T03:44:28.168Z,0.76
2019-04-05T03:45:28.178Z,0.79
2019-04-05T03:46:28.147Z,0.51
2019-04-05T03:47:28.205Z,0.63
2019-04-05T03:48:28.220Z,0.70
2019-04-05T03:49:28.165Z,2.19
2019-04-05T03:50:28.184Z,1.32
2019-04-05T03:51:28.194Z,1.28
2019-04-05T03:52:28.163Z,0.55
2019-04-05T03:53:28.175Z,0.48
2019-04-05T03:54:28.222Z,0.80
2019-04-05T03:55:28.176Z,2.03
2019-04-05T03:56:28.210Z,2.06
2019-04-05T03:57:28.209Z,1.60
2019-04-05T03:58:28.187Z,1.32
2019-04-05T03:59:28.209Z,0.73
2019-04-05T04:00:28.207Z,0.18
2019-04-05T04:01:28.171Z,0.98
2019-04-05T04:02:28.195Z,1.40
2019-04-05T04:03:28.205Z,0.68
2019-04-05T04:04:28.165Z,0.88
2019-04-05T04:05:28.247Z,1.01
2019-04-05T04:06:28.224Z,0.48
2019-04-05T04:07:28.197Z,0.04
2019-04-05T04:08:28.192Z,0.70
2019-04-05T04:09:28.213Z,0.33
2019-04-05T04:10:28.181Z,0.42
2019-04-05T04:11:28.221Z,0.61
2019-04-05T04:12:28.213Z,1.05
2019-04-05T04:13:28.183Z,0.98
2019-04-05T04:14:28.197Z,0.75
2019-04-05T04:15:28.227Z,0.20
2019-04-05T04:16:28.190Z,0.09
2019-04-05T04:17:28.277Z,0.00
2019-04-05T04:18:28.226Z,0.64
2019-04-05T04:19:28.201Z,0.62
2019-04-05T04:20:28.205Z,0.08
2019-04-05T04:21:28.209Z,0.88
2019-04-05T04:22:28.188Z,0.63
2019-04-05T04:23:28.217Z,0.24
2019-04-05T04:24:28.246Z,0.08
2019-04-05T04:25:28.192Z,0.63
2019-04-05T04:26:28.196Z,0.00
2019-04-05T04:27:28.219Z,0.73
2019-04-05T04:28:28.200Z,0.63
2019-04-05T04:29:28.232Z,0.24
2019-04-05T04:30:28.241Z,0.16
2019-04-05T04:31:28.214Z,0.56
2019-04-05T04:32:28.252Z,0.46
2019-04-05T04:33:28.250Z,0.11
2019-04-05T04:34:28.208Z,0.00
2019-04-05T04:35:28.220Z,0.00
2019-04-05T04:36:28.234Z,0.00
2019-04-05T04:37:28.205Z,0.00
2019-04-05T04:38:28.206Z,0.00
2019-04-05T04:39:28.225Z,0.00
2019-04-05T04:40:28.198Z,0.00
2019-04-05T04:41:31.652Z,0.13
2019-04-05T04:42:28.254Z,0.10
2019-04-05T04:43:28.215Z,0.51
2019-04-05T04:44:28.252Z,0.01
2019-04-05T04:45:28.291Z,0.11
2019-04-05T04:46:28.221Z,0.00
2019-04-05T04:47:28.223Z,0.13
2019-04-05T04:48:28.247Z,0.86
2019-04-05T04:49:28.206Z,0.16
2019-04-05T04:50:28.242Z,0.00
2019-04-05T04:51:28.229Z,0.00
2019-04-05T04:52:31.043Z,0.00
2019-04-05T04:53:28.249Z,0.67
2019-04-05T04:54:28.236Z,0.43
2019-04-05T04:55:28.224Z,0.00
2019-04-05T04:56:28.222Z,0.32
2019-04-05T04:57:28.238Z,0.74
2019-04-05T04:58:28.218Z,0.64
2019-04-05T04:59:28.235Z,0.07
2019-04-05T05:00:28.267Z,0.06
2019-04-05T05:01:28.193Z,0.00
2019-04-05T05:02:28.234Z,0.00
2019-04-05T05:03:28.229Z,0.00
2019-04-05T05:04:28.203Z,0.00
2019-04-05T05:05:28.235Z,0.00
2019-04-05T05:06:28.260Z,0.22
2019-04-05T05:07:28.222Z,0.34
2019-04-05T05:08:28.253Z,0.60
2019-04-05T05:09:28.252Z,0.52
2019-04-05T05:10:28.227Z,0.41
2019-04-05T05:11:28.258Z,0.12
2019-04-05T05:12:28.280Z,0.06
2019-04-05T05:13:28.207Z,0.00
2019-04-05T05:14:28.244Z,0.00
2019-04-05T05:15:28.252Z,0.00
2019-04-05T05:16:28.230Z,0.47
2019-04-05T05:17:37.792Z,0.55
2019-04-05T05:18:28.272Z,0.01
2019-04-05T05:19:28.230Z,0.00
2019-04-05T05:20:28.242Z,0.00
2019-04-05T05:21:28.245Z,0.00
2019-04-05T05:22:28.238Z,0.00
2019-04-05T05:23:28.279Z,0.04
2019-04-05T05:24:28.357Z,0.60
2019-04-05T05:25:28.227Z,0.24
2019-04-05T05:26:28.260Z,0.51
2019-04-05T05:27:28.281Z,0.40
2019-04-05T05:28:28.238Z,0.00
2019-04-05T05:29:28.285Z,0.00
2019-04-05T05:30:28.318Z,0.00
2019-04-05T05:31:28.244Z,0.06
2019-04-05T05:32:28.238Z,0.42
2019-04-05T05:33:28.281Z,0.09
2019-04-05T05:34:28.254Z,0.76
2019-04-05T05:35:28.269Z,0.08
2019-04-05T05:36:28.293Z,0.03
2019-04-05T05:37:28.281Z,0.00
2019-04-05T05:38:28.276Z,0.00
2019-04-05T05:39:28.276Z,0.00
2019-04-05T05:40:34.717Z,0.64
2019-04-05T05:41:28.271Z,0.79
2019-04-05T05:42:28.287Z,0.87
2019-04-05T05:43:28.250Z,1.12
2019-04-05T05:44:28.247Z,0.94
2019-04-05T05:45:28.299Z,1.12
2019-04-05T05:46:28.257Z,1.34
2019-04-05T05:47:28.276Z,1.02
2019-04-05T05:48:30.673Z,0.66
2019-04-05T05:49:28.257Z,0.59
2019-04-05T05:50:28.259Z,0.72
2019-04-05T05:51:28.276Z,0.54
2019-04-05T05:52:28.250Z,0.54
2019-04-05T05:53:28.274Z,0.62
2019-04-05T05:54:28.293Z,0.26
2019-04-05T05:55:30.032Z,0.22
2019-04-05T05:56:28.296Z,0.62
2019-04-05T05:57:28.345Z,0.16
2019-04-05T05:58:28.264Z,0.63
2019-04-05T05:59:30.239Z,0.46
2019-04-05T06:00:30.264Z,0.74
2019-04-05T06:01:28.266Z,0.46
2019-04-05T06:02:28.301Z,0.08
2019-04-05T06:03:28.295Z,0.10
2019-04-05T06:04:28.268Z,0.00
2019-04-05T06:05:28.298Z,0.14
2019-04-05T06:06:28.303Z,0.06
2019-04-05T06:07:28.254Z,0.16
2019-04-05T06:08:29.352Z,0.16
2019-04-05T06:09:28.278Z,0.00
2019-04-05T06:10:28.285Z,0.46
2019-04-05T06:11:28.292Z,0.52
2019-04-05T06:12:28.295Z,0.64
2019-04-05T06:13:28.255Z,0.37
2019-04-05T06:14:28.279Z,0.33
2019-04-05T06:15:28.310Z,0.46
2019-04-05T06:16:28.275Z,0.67
2019-04-05T06:17:28.312Z,0.76
2019-04-05T06:18:28.324Z,0.73
2019-04-05T06:19:28.283Z,0.45
2019-04-05T06:20:28.303Z,0.24
2019-04-05T06:21:28.341Z,0.72
2019-04-05T06:22:28.320Z,0.23
2019-04-05T06:23:33.902Z,0.13
2019-04-05T06:24:28.338Z,0.61
2019-04-05T06:25:28.332Z,0.68
2019-04-05T06:26:28.338Z,0.50
2019-04-05T06:27:28.341Z,0.13
2019-04-05T06:28:28.365Z,0.28
2019-04-05T06:29:28.375Z,0.00
2019-04-05T06:30:28.919Z,0.56
2019-04-05T06:31:28.331Z,0.09
2019-04-05T06:32:28.344Z,0.80
2019-04-05T06:33:31.711Z,0.86
2019-04-05T06:34:28.357Z,0.08
2019-04-05T06:35:28.327Z,0.55
2019-04-05T06:36:28.418Z,0.31
2019-04-05T06:37:28.320Z,0.99
2019-04-05T06:38:28.372Z,0.19
2019-04-05T06:39:28.377Z,0.03
2019-04-05T06:40:40.119Z,1.09
2019-04-05T06:41:28.370Z,1.28
2019-04-05T06:42:28.365Z,0.13
2019-04-05T06:43:28.342Z,0.02
2019-04-05T06:44:28.351Z,0.87
2019-04-05T06:45:28.379Z,0.60
2019-04-05T06:46:28.352Z,0.99
2019-04-05T06:47:28.362Z,0.60
2019-04-05T06:48:29.579Z,0.51
2019-04-05T06:49:28.344Z,0.37
2019-04-05T06:50:28.358Z,1.12
2019-04-05T06:51:28.385Z,0.73
2019-04-05T06:52:28.348Z,0.23
2019-04-05T06:53:28.372Z,0.25
2019-04-05T06:54:28.385Z,0.17
2019-04-05T06:55:28.351Z,0.61
2019-04-05T06:56:28.396Z,1.02
2019-04-05T06:57:28.439Z,1.16
2019-04-05T06:58:29.413Z,1.08
2019-04-05T06:59:28.386Z,1.20
2019-04-05T07:00:28.394Z,0.45
2019-04-05T07:01:28.354Z,1.15
2019-04-05T07:02:28.370Z,0.00
2019-04-05T07:03:28.410Z,0.77
2019-04-05T07:04:30.870Z,0.43
2019-04-05T07:05:28.363Z,1.04
2019-04-05T07:06:28.377Z,1.22
2019-04-05T07:07:28.362Z,1.29
2019-04-05T07:08:28.380Z,1.05
2019-04-05T07:09:28.380Z,0.66
2019-04-05T07:10:28.351Z,0.15
2019-04-05T07:11:28.410Z,0.24
2019-04-05T07:12:28.363Z,1.03
2019-04-05T07:13:28.372Z,0.70
2019-04-05T07:14:28.395Z,0.53
2019-04-05T07:15:28.398Z,0.49
2019-04-05T07:16:28.376Z,0.98
2019-04-05T07:17:28.379Z,2.34
2019-04-05T07:18:35.505Z,0.65
2019-04-05T07:19:28.378Z,1.20
2019-04-05T07:20:28.385Z,0.78
2019-04-05T07:21:28.399Z,1.42
2019-04-05T07:22:38.575Z,1.05
2019-04-05T07:23:28.362Z,1.70
2019-04-05T07:24:28.457Z,1.10
2019-04-05T07:25:29.453Z,1.39
2019-04-05T07:26:28.374Z,2.20
2019-04-05T07:27:28.413Z,0.83
2019-04-05T07:28:28.368Z,1.06
2019-04-05T07:29:28.401Z,0.30
2019-04-05T07:30:28.982Z,0.76
2019-04-05T07:31:28.377Z,0.30
2019-04-05T07:32:31.109Z,1.78
2019-04-05T07:33:28.385Z,1.75
2019-04-05T07:34:28.367Z,1.56
2019-04-05T07:35:33.658Z,0.82
2019-04-05T07:36:28.427Z,0.40
2019-04-05T07:37:28.383Z,0.34
2019-04-05T07:38:28.407Z,0.32
2019-04-05T07:39:28.400Z,1.73
2019-04-05T07:40:28.396Z,1.32
2019-04-05T07:41:28.399Z,1.65
2019-04-05T07:42:28.413Z,0.97
2019-04-05T07:43:28.374Z,0.80
2019-04-05T07:44:28.413Z,0.31
2019-04-05T07:45:28.419Z,1.50
2019-04-05T07:46:28.374Z,0.33
2019-04-05T07:47:28.428Z,0.04
2019-04-05T07:48:28.408Z,1.12
2019-04-05T07:49:28.405Z,1.25
2019-04-05T07:50:28.410Z,1.12
2019-04-05T07:51:28.402Z,1.96
2019-04-05T07:52:28.410Z,1.17
2019-04-05T07:53:28.417Z,1.54
2019-04-05T07:54:28.402Z,0.60
2019-04-05T07:55:28.377Z,0.60
2019-04-05T07:56:28.439Z,1.21
2019-04-05T07:57:28.441Z,0.64
2019-04-05T07:58:28.404Z,0.93
2019-04-05T07:59:28.421Z,0.83
2019-04-05T08:00:28.417Z,0.21
2019-04-05T08:01:28.399Z,0.56
2019-04-05T08:02:28.444Z,1.01
2019-04-05T08:03:28.433Z,1.72
2019-04-05T08:04:28.439Z,1.30
2019-04-05T08:05:28.399Z,1.01
2019-04-05T08:06:28.419Z,1.06
2019-04-05T08:07:28.386Z,1.12
2019-04-05T08:08:28.416Z,1.92
2019-04-05T08:09:28.442Z,1.42
2019-04-05T08:10:28.401Z,0.44
2019-04-05T08:11:28.442Z,0.78
2019-04-05T08:12:28.443Z,1.23
2019-04-05T08:13:28.408Z,2.12
2019-04-05T08:14:28.410Z,1.90
2019-04-05T08:15:28.429Z,0.83
2019-04-05T08:16:28.429Z,1.28
2019-04-05T08:17:28.439Z,1.15
2019-04-05T08:18:28.451Z,1.52
2019-04-05T08:19:28.420Z,1.89
2019-04-05T08:20:28.421Z,0.63
2019-04-05T08:21:28.470Z,1.09
2019-04-05T08:22:28.410Z,1.29
2019-04-05T08:23:28.419Z,0.29
2019-04-05T08:24:28.431Z,0.03
2019-04-05T08:25:28.407Z,0.37
2019-04-05T08:26:28.465Z,1.13
2019-04-05T08:27:28.461Z,1.33
2019-04-05T08:28:29.802Z,2.13
2019-04-05T08:29:28.458Z,0.87
2019-04-05T08:30:28.459Z,0.36
2019-04-05T08:31:28.403Z,0.64
2019-04-05T08:32:28.466Z,0.92
2019-04-05T08:33:28.472Z,2.26
2019-04-05T08:34:28.420Z,0.81
2019-04-05T08:35:28.438Z,1.41
2019-04-05T08:36:28.493Z,2.47
2019-04-05T08:37:28.442Z,0.99
2019-04-05T08:38:28.473Z,1.34
2019-04-05T08:39:28.532Z,1.58
2019-04-05T08:40:28.417Z,0.99
2019-04-05T08:41:28.465Z,0.71
2019-04-05T08:42:28.453Z,2.18
2019-04-05T08:43:28.422Z,2.49
2019-04-05T08:44:28.453Z,1.80
2019-04-05T08:45:28.482Z,2.52
2019-04-05T08:46:28.435Z,2.32
2019-04-05T08:47:28.450Z,2.67
2019-04-05T08:48:28.478Z,3.02
2019-04-05T08:49:28.435Z,1.56
2019-04-05T08:50:28.466Z,1.04
2019-04-05T08:51:28.459Z,2.33
2019-04-05T08:52:28.439Z,2.87
2019-04-05T08:53:28.458Z,2.61
2019-04-05T08:54:33.131Z,1.86
2019-04-05T08:55:28.471Z,0.81
2019-04-05T08:56:28.482Z,2.41
2019-04-05T08:57:28.453Z,2.46
2019-04-05T08:58:33.560Z,1.68
2019-04-05T08:59:28.485Z,1.36
2019-04-05T09:00:28.477Z,1.89
2019-04-05T09:01:28.477Z,1.42
2019-04-05T09:02:28.468Z,0.90
2019-04-05T09:03:28.478Z,1.73
2019-04-05T09:04:28.450Z,0.57
2019-04-05T09:05:28.481Z,1.79
2019-04-05T09:06:28.484Z,0.45
2019-04-05T09:07:28.467Z,0.84
2019-04-05T09:08:28.471Z,1.52
2019-04-05T09:09:28.482Z,1.54
2019-04-05T09:10:28.434Z,1.53
2019-04-05T09:11:28.468Z,0.74
2019-04-05T09:12:28.487Z,0.86
2019-04-05T09:13:28.462Z,1.05
2019-04-05T09:14:28.469Z,1.79
2019-04-05T09:15:28.490Z,1.01
2019-04-05T09:16:28.457Z,1.09
2019-04-05T09:17:28.487Z,0.72
2019-04-05T09:18:28.543Z,1.50
2019-04-05T09:19:28.481Z,1.36
2019-04-05T09:20:28.473Z,0.84
2019-04-05T09:21:28.489Z,0.39
2019-04-05T09:22:28.470Z,0.87
2019-04-05T09:23:28.500Z,0.19
2019-04-05T09:24:28.504Z,2.08
2019-04-05T09:25:28.473Z,1.16
2019-04-05T09:26:28.474Z,0.95
2019-04-05T09:27:28.505Z,1.38
2019-04-05T09:28:28.458Z,1.27
2019-04-05T09:29:28.517Z,2.14
2019-04-05T09:30:28.518Z,1.26
2019-04-05T09:31:28.461Z,1.37
2019-04-05T09:32:28.517Z,1.10
2019-04-05T09:33:28.493Z,1.75
2019-04-05T09:34:28.471Z,1.28
2019-04-05T09:35:28.494Z,1.45
2019-04-05T09:36:28.574Z,0.81
2019-04-05T09:37:28.469Z,1.53
2019-04-05T09:38:28.498Z,1.39
2019-04-05T09:39:28.487Z,1.59
2019-04-05T09:40:28.485Z,0.91
2019-04-05T09:41:28.506Z,2.53
2019-04-05T09:42:28.507Z,1.58
2019-04-05T09:43:28.478Z,1.66
2019-04-05T09:44:28.494Z,0.87
2019-04-05T09:45:28.514Z,1.08
2019-04-05T09:46:28.501Z,1.61
2019-04-05T09:47:28.516Z,0.67
2019-04-05T09:48:28.538Z,0.51
2019-04-05T09:49:36.635Z,0.85
2019-04-05T09:50:28.497Z,1.07
2019-04-05T09:51:28.496Z,1.57
2019-04-05T09:52:28.490Z,0.75
2019-04-05T09:53:28.499Z,0.96
2019-04-05T09:54:28.536Z,2.02
2019-04-05T09:55:28.493Z,1.60
2019-04-05T09:56:28.510Z,2.15
2019-04-05T09:57:28.505Z,1.30
2019-04-05T09:58:28.498Z,1.22
2019-04-05T09:59:28.505Z,1.75
2019-04-05T10:00:28.540Z,1.71
2019-04-05T10:01:28.504Z,1.03
2019-04-05T10:02:31.600Z,2.30
2019-04-05T10:03:28.523Z,0.73
2019-04-05T10:04:31.123Z,0.97
2019-04-05T10:05:28.525Z,1.69
2019-04-05T10:06:28.542Z,1.49
2019-04-05T10:07:28.498Z,1.32
2019-04-05T10:08:28.519Z,0.49
2019-04-05T10:09:28.543Z,0.35
2019-04-05T10:10:28.511Z,0.68
2019-04-05T10:11:28.530Z,1.20
2019-04-05T10:12:28.557Z,1.95
2019-04-05T10:13:28.474Z,1.37
2019-04-05T10:14:28.563Z,0.64
2019-04-05T10:15:28.527Z,0.84
2019-04-05T10:16:28.511Z,0.71
2019-04-05T10:17:28.527Z,0.06
2019-04-05T10:18:28.560Z,1.46
2019-04-05T10:19:28.500Z,1.73
2019-04-05T10:20:28.519Z,0.60
2019-04-05T10:21:28.551Z,1.22
2019-04-05T10:22:28.519Z,0.63
2019-04-05T10:23:28.557Z,1.19
2019-04-05T10:24:28.554Z,0.93
2019-04-05T10:25:28.511Z,0.64
2019-04-05T10:26:28.534Z,1.35
2019-04-05T10:27:28.550Z,0.52
2019-04-05T10:28:28.526Z,1.25
2019-04-05T10:29:28.552Z,1.13
2019-04-05T10:30:28.618Z,1.52
2019-04-05T10:31:28.529Z,0.94
2019-04-05T10:32:28.564Z,0.40
2019-04-05T10:33:28.552Z,2.16
2019-04-05T10:34:28.521Z,2.35
2019-04-05T10:35:28.555Z,0.95
2019-04-05T10:36:28.566Z,0.83
2019-04-05T10:37:28.523Z,0.87
2019-04-05T10:38:28.542Z,0.64
2019-04-05T10:39:28.537Z,0.37
2019-04-05T10:40:28.521Z,0.49
2019-04-05T10:41:28.548Z,0.13
2019-04-05T10:42:28.561Z,0.92
2019-04-05T10:43:28.544Z,0.49
2019-04-05T10:44:28.533Z,0.38
2019-04-05T10:45:28.562Z,1.16
2019-04-05T10:46:28.519Z,1.40
2019-04-05T10:47:28.567Z,1.46
2019-04-05T10:48:28.584Z,0.58
2019-04-05T10:49:28.536Z,1.46
2019-04-05T10:50:28.541Z,1.32
2019-04-05T10:51:28.543Z,0.70
2019-04-05T10:52:28.536Z,1.39
2019-04-05T10:53:28.571Z,1.30
2019-04-05T10:54:28.561Z,1.36
2019-04-05T10:55:28.531Z,1.33
2019-04-05T10:56:28.591Z,1.55
2019-04-05T10:57:28.570Z,1.43
2019-04-05T10:58:28.542Z,1.68
2019-04-05T10:59:28.547Z,1.64
2019-04-05T11:00:28.572Z,2.70
2019-04-05T11:01:28.523Z,2.23
2019-04-05T11:02:28.561Z,1.46
2019-04-05T11:03:28.581Z,0.37
2019-04-05T11:04:28.537Z,0.20
2019-04-05T11:05:28.577Z,1.23
2019-04-05T11:06:28.589Z,0.76
2019-04-05T11:07:28.551Z,0.51
2019-04-05T11:08:28.539Z,0.07
2019-04-05T11:09:28.587Z,0.18
2019-04-05T11:10:28.557Z,0.84
2019-04-05T11:11:28.576Z,1.09
2019-04-05T11:12:28.597Z,1.80
2019-04-05T11:13:28.557Z,2.18
2019-04-05T11:14:28.577Z,0.51
2019-04-05T11:15:28.794Z,0.23
2019-04-05T11:16:28.569Z,0.59
2019-04-05T11:17:28.608Z,0.63
2019-04-05T11:18:30.535Z,0.13
2019-04-05T11:19:30.184Z,1.06
2019-04-05T11:20:28.571Z,0.73
2019-04-05T11:21:28.588Z,1.39
2019-04-05T11:22:28.567Z,1.33
2019-04-05T11:23:28.596Z,0.42
2019-04-05T11:24:28.617Z,0.71
2019-04-05T11:25:28.562Z,0.88
2019-04-05T11:26:28.601Z,0.74
2019-04-05T11:27:28.609Z,0.37
2019-04-05T11:28:28.573Z,0.29
2019-04-05T11:29:28.611Z,0.89
2019-04-05T11:30:28.617Z,1.01
2019-04-05T11:31:28.568Z,1.92
2019-04-05T11:32:28.643Z,0.09
2019-04-05T11:33:28.619Z,0.13
2019-04-05T11:34:28.558Z,0.12
2019-04-05T11:35:28.629Z,0.01
2019-04-05T11:36:28.642Z,0.15
2019-04-05T11:37:28.579Z,0.02
2019-04-05T11:38:28.549Z,0.12
2019-04-05T11:39:28.653Z,0.00
2019-04-05T11:40:28.591Z,0.00
2019-04-05T11:41:28.622Z,0.44
2019-04-05T11:42:28.649Z,0.28
2019-04-05T11:43:31.173Z,0.84
2019-04-05T11:44:28.631Z,0.42
2019-04-05T11:45:28.614Z,0.28
2019-04-05T11:46:28.584Z,0.94
2019-04-05T11:47:28.614Z,0.67
2019-04-05T11:48:30.308Z,0.35
2019-04-05T11:49:28.581Z,0.00
2019-04-05T11:50:34.543Z,0.18
2019-04-05T11:51:28.622Z,0.32
2019-04-05T11:52:28.605Z,0.63
2019-04-05T11:53:28.644Z,0.07
2019-04-05T11:54:28.637Z,0.23
2019-04-05T11:55:28.588Z,0.03
2019-04-05T11:56:28.624Z,0.17
2019-04-05T11:57:28.657Z,0.05
2019-04-05T11:58:28.573Z,0.00
2019-04-05T11:59:28.612Z,0.00
2019-04-05T12:00:28.645Z,0.00
2019-04-05T12:01:28.599Z,0.00
2019-04-05T12:02:28.636Z,0.00
2019-04-05T12:03:28.669Z,0.00
2019-04-05T12:04:28.606Z,0.00
2019-04-05T12:05:28.622Z,0.07
2019-04-05T12:06:28.630Z,0.05
2019-04-05T12:07:28.585Z,0.00
2019-04-05T12:08:28.620Z,0.00
2019-04-05T12:09:28.628Z,0.06
2019-04-05T12:10:31.657Z,0.37
2019-04-05T12:11:28.625Z,0.01
2019-04-05T12:12:28.649Z,0.30
2019-04-05T12:13:28.612Z,0.28
2019-04-05T12:14:30.487Z,0.55
2019-04-05T12:15:28.646Z,0.68
2019-04-05T12:16:28.601Z,0.80
2019-04-05T12:17:28.646Z,0.63
2019-04-05T12:18:28.714Z,0.75
2019-04-05T12:19:28.612Z,0.56
2019-04-05T12:20:28.626Z,0.01
2019-04-05T12:21:28.650Z,0.00
2019-04-05T12:22:28.616Z,0.03
2019-04-05T12:23:32.644Z,0.00
2019-04-05T12:24:32.380Z,0.23
2019-04-05T12:25:28.612Z,0.06
2019-04-05T12:26:28.625Z,0.49
2019-04-05T12:27:28.638Z,0.06
2019-04-05T12:28:28.619Z,0.10
2019-04-05T12:29:28.657Z,0.36
2019-04-05T12:30:28.704Z,0.03
2019-04-05T12:31:28.596Z,0.54
2019-04-05T12:32:34.510Z,0.42
2019-04-05T12:33:28.665Z,0.00
2019-04-05T12:34:28.879Z,0.00
2019-04-05T12:35:28.655Z,0.00
2019-04-05T12:36:28.652Z,0.05
2019-04-05T12:37:28.621Z,0.33
2019-04-05T12:38:31.167Z,0.17
2019-04-05T12:39:28.652Z,0.00
2019-04-05T12:40:28.604Z,0.00
2019-04-05T12:41:28.715Z,0.28
2019-04-05T12:42:28.681Z,0.23
2019-04-05T12:43:28.628Z,0.13
2019-04-05T12:44:28.638Z,0.00
2019-04-05T12:45:28.662Z,0.00
2019-04-05T12:46:28.633Z,0.42
2019-04-05T12:47:28.650Z,0.62
2019-04-05T12:48:28.667Z,0.28
2019-04-05T12:49:28.629Z,0.00
2019-04-05T12:50:28.649Z,0.00
2019-04-05T12:51:28.674Z,0.02
2019-04-05T12:52:28.653Z,0.01
2019-04-05T12:53:28.659Z,0.00
2019-04-05T12:54:28.662Z,0.37
2019-04-05T12:55:28.640Z,0.33
2019-04-05T12:56:28.641Z,0.05
2019-04-05T12:57:28.682Z,0.10
2019-04-05T12:58:28.615Z,0.29
2019-04-05T12:59:28.681Z,0.35
2019-04-05T13:00:28.696Z,0.47
2019-04-05T13:01:28.645Z,0.49
2019-04-05T13:02:33.887Z,0.82
2019-04-05T13:03:28.694Z,0.67
2019-04-05T13:04:28.648Z,0.42
2019-04-05T13:05:28.679Z,0.36
2019-04-05T13:06:28.694Z,0.52
2019-04-05T13:07:28.641Z,0.34
2019-04-05T13:08:28.679Z,0.24
2019-04-05T13:09:28.696Z,0.26
2019-04-05T13:10:30.266Z,0.93
2019-04-05T13:11:28.697Z,0.82
2019-04-05T13:12:28.722Z,0.56
2019-04-05T13:13:28.676Z,0.75
2019-04-05T13:14:28.667Z,0.15
2019-04-05T13:15:28.677Z,0.00
2019-04-05T13:16:28.646Z,0.09
2019-04-05T13:17:31.035Z,0.00
2019-04-05T13:18:31.510Z,0.00